Time;durP1;ratioP1;P1;durP2;ratioP2;P2;SDS_P1;SDS_P2;PMS_P1;PMS_P2;Temp;Humidity;BMP_temperature;BMP_pressure;BME280_temperature;BME280_humidity;BME280_pressure;Samples;Min_cycle;Max_cycle;Signal;HPM_P1;HPM_P2
2021/12/12 00:02:48;;;;;;;24.55;9.38;;;;;;;3.93;90.95;101907.19;5041904;28;20072;-79
2021/12/12 00:05:16;;;;;;;24.08;8.45;;;;;;;3.91;90.93;101898.38;5039083;28;20033;-79
2021/12/12 00:07:43;;;;;;;25.95;8.93;;;;;;;3.89;90.97;101901.09;5044006;28;20029;-79
2021/12/12 00:10:21;;;;;;;25.13;8.25;;;;;;;3.88;90.85;101899.38;5045561;28;20104;-79
2021/12/12 00:12:50;;;;;;;25.20;9.00;;;;;;;3.91;91.03;101898.38;5039034;28;20132;-79
2021/12/12 00:15:19;;;;;;;21.98;8.25;;;;;;;3.90;91.13;101900.19;5039961;28;20021;-79
2021/12/12 00:17:45;;;;;;;25.85;8.48;;;;;;;3.93;90.86;101891.25;5042779;28;20045;-79
2021/12/12 00:20:13;;;;;;;26.52;8.88;;;;;;;3.93;90.69;101892.09;5048757;28;20045;-79
2021/12/12 00:22:39;;;;;;;27.83;8.90;;;;;;;3.94;90.69;101892.97;5044787;28;20073;-79
2021/12/12 00:25:07;;;;;;;26.50;7.35;;;;;;;3.94;90.88;101898.28;5044013;28;20029;-79
2021/12/12 00:27:32;;;;;;;22.63;7.22;;;;;;;3.96;90.52;101889.34;5041416;28;20566;-79
2021/12/12 00:30:02;;;;;;;24.77;7.78;;;;;;;3.98;90.58;101889.31;5035752;28;20065;-79
2021/12/12 00:32:29;;;;;;;26.98;8.40;;;;;;;3.96;90.99;101876.06;5034188;28;20469;-79
2021/12/12 00:34:59;;;;;;;21.45;7.57;;;;;;;3.96;90.82;101873.41;5048242;28;20013;-79
2021/12/12 00:37:24;;;;;;;;;;;;;;;4.02;90.73;101870.56;5045420;28;20362;-79
2021/12/12 00:39:53;;;;;;;20.98;8.68;;;;;;;3.97;90.88;101875.16;5048898;28;19913;-80
2021/12/12 00:42:22;;;;;;;26.27;8.02;;;;;;;3.98;90.82;101874.25;5044204;28;20511;-80
2021/12/12 00:44:55;;;;;;;26.55;8.25;;;;;;;3.99;90.63;101881.28;5030525;28;20029;-79
2021/12/12 00:47:22;;;;;;;26.33;6.85;;;;;;;3.98;91.18;101866.25;5039402;28;20029;-79
2021/12/12 00:49:47;;;;;;;23.52;7.35;;;;;;;3.99;91.11;101865.31;5030431;28;20142;-79
2021/12/12 00:52:16;;;;;;;25.48;8.40;;;;;;;4.00;91.23;101866.22;5035126;28;20052;-79
2021/12/12 00:54:43;;;;;;;23.25;7.82;;;;;;;3.99;91.30;101861.81;5038279;28;20041;-79
2021/12/12 00:57:12;;;;;;;24.83;7.15;;;;;;;4.02;91.61;101867.03;5042684;28;20044;-79
2021/12/12 00:59:38;;;;;;;22.88;7.97;;;;;;;4.01;91.60;101854.63;5038304;28;20077;-80
2021/12/12 01:02:08;;;;;;;23.20;7.53;;;;;;;4.01;91.80;101847.56;5042344;28;20463;-80
2021/12/12 01:04:41;;;;;;;26.55;7.70;;;;;;;4.01;91.79;101851.97;5046052;28;20043;-80
2021/12/12 01:07:12;;;;;;;26.20;7.82;;;;;;;4.00;91.94;101850.25;5028987;28;20025;-80
2021/12/12 01:10:06;;;;;;;28.00;9.00;;;;;;;4.03;91.79;101852.81;5049587;28;20059;-80
2021/12/12 01:12:32;;;;;;;21.38;7.82;;;;;;;4.00;92.19;101848.47;5036960;28;20033;-79
2021/12/12 01:15:08;;;;;;;20.85;8.20;;;;;;;4.03;92.08;101850.16;5033879;28;20028;-79
2021/12/12 01:17:40;;;;;;;23.15;8.40;;;;;;;4.04;92.09;101849.22;5049241;28;20021;-79
2021/12/12 01:20:40;;;;;;;22.63;7.88;;;;;;;4.07;92.14;101850.94;5028646;28;20025;-79
2021/12/12 01:23:27;;;;;;;;;;;;;;;4.11;91.79;101853.44;5028983;28;20060;-79
2021/12/12 01:25:54;;;;;;;20.60;7.22;;;;;;;4.06;92.36;101852.72;5031457;28;19924;-79
2021/12/12 01:28:29;;;;;;;25.35;8.35;;;;;;;4.05;92.41;101840.34;5029416;28;20076;-80
2021/12/12 01:31:00;;;;;;;24.52;9.38;;;;;;;4.07;92.32;101853.59;5049467;28;20052;-80
2021/12/12 01:33:33;;;;;;;26.77;9.25;;;;;;;4.08;92.34;101850.88;5039642;28;20037;-80
2021/12/12 01:36:06;;;;;;;25.30;8.75;;;;;;;4.08;92.43;101853.53;5028726;28;20370;-80
2021/12/12 01:38:53;;;;;;;21.60;7.55;;;;;;;4.09;92.56;101857.09;5046426;28;20029;-80
2021/12/12 01:41:30;;;;;;;28.95;8.27;;;;;;;4.10;92.60;101854.38;5047500;28;20104;-80
2021/12/12 01:44:02;;;;;;;29.15;8.50;;;;;;;4.11;92.72;101855.25;5046990;28;20115;-80
2021/12/12 01:46:33;;;;;;;26.38;8.90;;;;;;;4.11;92.93;101845.47;5045712;28;20059;-80
2021/12/12 01:49:07;;;;;;;23.38;8.43;;;;;;;4.12;92.91;101847.22;5032090;28;20083;-79
2021/12/12 01:51:33;;;;;;;27.67;9.00;;;;;;;4.12;92.66;101847.22;5033466;28;20033;-79
2021/12/12 01:54:05;;;;;;;25.20;8.73;;;;;;;4.13;93.05;101850.72;5036310;28;20353;-79
2021/12/12 01:56:39;;;;;;;27.00;8.95;;;;;;;4.14;92.93;101845.41;5052400;28;20132;-79
2021/12/12 01:59:08;;;;;;;24.58;8.45;;;;;;;4.15;93.13;101844.47;5040778;28;20066;-79
2021/12/12 02:01:47;;;;;;;24.67;7.47;;;;;;;4.16;93.02;101843.53;5057463;28;20315;-79
2021/12/12 02:04:20;;;;;;;25.27;9.82;;;;;;;4.19;93.17;101839.94;5052979;28;20542;-80
2021/12/12 02:06:48;;;;;;;28.75;9.10;;;;;;;4.19;93.27;101835.47;5032122;28;20028;-79
2021/12/12 02:09:15;;;;;;;24.38;8.35;;;;;;;4.22;93.16;101841.59;5040387;28;20112;-79
2021/12/12 02:11:43;;;;;;;25.73;8.70;;;;;;;4.22;92.92;101841.59;5053601;28;20532;-79
2021/12/12 02:14:12;;;;;;;25.20;8.02;;;;;;;4.24;93.38;101839.78;5039919;28;20079;-79
2021/12/12 02:16:45;;;;;;;22.63;8.40;;;;;;;4.26;93.72;101830.84;5048217;28;20473;-79
2021/12/12 02:19:11;;;;;;;22.23;7.28;;;;;;;4.26;93.29;101825.53;5052101;28;20499;-79
2021/12/12 02:35:49;;;;;;;27.58;8.35;;;;;;;4.37;93.69;101826.03;5032955;28;20072;-79
2021/12/12 02:38:19;;;;;;;25.00;8.88;;;;;;;4.40;94.03;101830.38;5037206;28;20037;-80
2021/12/12 02:40:53;;;;;;;26.70;8.15;;;;;;;4.41;93.58;101823.28;5033500;28;20025;-80
2021/12/12 02:43:22;;;;;;;23.73;7.70;;;;;;;4.44;93.56;101829.38;5051892;28;20078;-80
2021/12/12 02:45:51;;;;;;;22.67;8.57;;;;;;;4.45;93.83;101820.50;5050618;28;20032;-80
2021/12/12 02:48:19;;;;;;;26.00;7.55;;;;;;;4.46;94.00;101808.03;5047436;28;20021;-80
2021/12/12 02:50:49;;;;;;;32.08;8.50;;;;;;;4.45;94.40;101793.88;5033085;28;20073;-79
2021/12/12 02:53:31;;;;;;;24.63;8.07;;;;;;;4.45;94.40;101799.19;5033804;28;20036;-79
2021/12/12 02:56:03;;;;;;;22.60;7.53;;;;;;;4.47;94.54;101801.81;5045629;28;20033;-79
2021/12/12 02:58:29;;;;;;;31.27;8.20;;;;;;;4.46;94.86;101803.56;5043921;28;20397;-79
2021/12/12 03:01:06;;;;;;;21.85;7.25;;;;;;;4.46;94.92;101798.25;5052720;28;20037;-79
2021/12/12 03:03:35;;;;;;;31.15;7.93;;;;;;;4.47;95.33;101797.34;5051227;28;20210;-79
2021/12/12 03:06:01;;;;;;;18.70;7.25;;;;;;;4.48;95.51;101795.53;5046680;28;20101;-80
2021/12/12 03:08:27;;;;;;;22.73;7.55;;;;;;;4.49;95.16;101791.97;5036913;28;20374;-79
2021/12/12 03:10:53;;;;;;;29.02;7.88;;;;;;;4.48;95.44;101798.19;5036063;28;20033;-80
2021/12/12 03:13:20;;;;;;;25.00;7.22;;;;;;;4.47;95.63;101797.34;5040027;28;20033;-80
2021/12/12 03:15:47;;;;;;;22.00;8.18;;;;;;;4.49;95.51;101791.97;5048443;28;20064;-79
2021/12/12 03:18:20;;;;;;;21.52;8.35;;;;;;;4.48;95.93;101788.44;5050928;28;20029;-79
2021/12/12 03:20:51;;;;;;;26.77;9.18;;;;;;;4.49;95.75;101789.31;5036698;28;20049;-80
2021/12/12 03:23:22;;;;;;;26.30;9.00;;;;;;;4.49;96.12;101798.16;5038037;28;20315;-80
2021/12/12 03:26:00;;;;;;;28.90;8.02;;;;;;;4.49;96.13;101783.97;5046495;28;20018;-80
2021/12/12 03:28:29;;;;;;;23.10;8.27;;;;;;;4.48;96.29;101776.91;5030510;28;20403;-80
2021/12/12 03:30:57;;;;;;;23.02;7.60;;;;;;;4.48;96.55;101766.25;5034944;28;20036;-80
2021/12/12 03:33:24;;;;;;;25.33;8.75;;;;;;;4.48;96.75;101783.13;5032784;28;20037;-79
2021/12/12 03:35:52;;;;;;;22.02;7.75;;;;;;;4.50;96.63;101770.63;5030420;28;20029;-80
2021/12/12 03:38:19;;;;;;;26.08;7.72;;;;;;;4.49;96.96;101763.53;5032404;28;20029;-79
2021/12/12 03:40:45;;;;;;;26.42;8.57;;;;;;;4.49;97.15;101768.88;5035687;28;20479;-79
2021/12/12 03:43:13;;;;;;;31.88;9.38;;;;;;;4.47;97.57;101765.41;5032836;28;20184;-80
2021/12/12 03:45:40;;;;;;;24.25;8.27;;;;;;;4.49;97.55;101765.34;5046607;28;20489;-80
2021/12/12 03:48:11;;;;;;;23.92;8.25;;;;;;;4.48;98.04;101767.16;5049122;28;20029;-79
2021/12/12 03:50:39;;;;;;;27.50;9.43;;;;;;;4.50;98.07;101767.09;5051500;28;20123;-80
2021/12/12 03:53:05;;;;;;;21.23;8.77;;;;;;;4.52;98.47;101770.56;5049595;28;20243;-80
2021/12/12 03:55:31;;;;;;;26.42;8.77;;;;;;;4.51;98.27;101767.03;5046183;28;20029;-80
2021/12/12 03:58:02;;;;;;;19.90;8.35;;;;;;;4.51;98.71;101767.03;5049194;28;20052;-79
2021/12/12 04:00:50;;;;;;;19.70;7.70;;;;;;;4.52;98.69;101766.13;5059528;28;21082;-79
2021/12/12 04:03:17;;;;;;;21.73;7.13;;;;;;;4.53;98.45;101769.66;5048821;28;20347;-80
2021/12/12 04:05:48;;;;;;;21.52;7.82;;;;;;;4.53;98.64;101767.00;5040980;28;20395;-80
2021/12/12 04:08:14;;;;;;;20.30;7.43;;;;;;;4.54;98.79;101766.94;5029701;28;20037;-80
2021/12/12 04:10:40;;;;;;;20.50;7.03;;;;;;;4.57;98.95;101770.41;5050095;28;20477;-80
2021/12/12 04:13:05;;;;;;;22.35;7.35;;;;;;;4.59;99.16;101769.44;5050723;28;20063;-80
2021/12/12 04:15:30;;;;;;;19.83;6.88;;;;;;;4.62;99.26;101768.47;5050650;28;20272;-80
2021/12/12 04:17:56;;;;;;;20.60;6.60;;;;;;;4.62;99.39;101771.13;5047919;28;20029;-80
2021/12/12 04:20:27;;;;;;;21.15;6.65;;;;;;;4.62;99.35;101771.13;5036624;28;20162;-80
2021/12/12 04:22:53;;;;;;;21.52;7.35;;;;;;;4.62;99.11;101774.66;5031160;28;20029;-80
2021/12/12 04:25:19;;;;;;;20.33;6.57;;;;;;;4.65;99.20;101777.22;5029692;28;20079;-80
2021/12/12 04:27:44;;;;;;;19.27;6.85;;;;;;;4.67;99.61;101769.16;5048503;28;20037;-80
2021/12/12 04:30:11;;;;;;;21.25;6.85;;;;;;;4.69;99.49;101780.66;5045163;28;20009;-80
2021/12/12 04:32:41;;;;;;;17.92;6.28;;;;;;;4.71;99.52;101776.13;5029527;28;20052;-80
2021/12/12 04:35:20;;;;;;;19.63;6.50;;;;;;;4.72;99.28;101784.06;5040048;28;20558;-80
2021/12/12 04:37:46;;;;;;;25.67;6.60;;;;;;;4.73;99.14;101777.84;5042559;28;20318;-80
2021/12/12 04:40:15;;;;;;;20.33;6.68;;;;;;;4.74;99.27;101773.38;5040384;28;20729;-81
2021/12/12 04:42:42;;;;;;;22.85;6.82;;;;;;;4.77;99.29;101778.59;5029680;28;20025;-80
2021/12/12 04:45:26;;;;;;;17.40;5.95;;;;;;;4.77;99.12;101777.72;5042091;28;20067;-80
2021/12/12 04:51:08;;;;;;;;;;;;;;;4.82;98.89;101776.66;5031419;28;20113;-80
2021/12/12 04:53:46;;;;;;;19.40;6.15;;;;;;;4.82;99.54;101778.47;5030937;28;20012;-80
2021/12/12 04:56:24;;;;;;;17.27;6.57;;;;;;;4.81;99.62;101776.72;5030677;28;20029;-80
2021/12/12 04:58:58;;;;;;;19.52;5.63;;;;;;;4.83;99.61;101783.72;5032081;28;20060;-80
2021/12/12 05:01:39;;;;;;;21.73;6.25;;;;;;;4.84;99.55;101780.13;5037633;28;20029;-80
2021/12/12 05:04:20;;;;;;;18.50;6.80;;;;;;;4.85;99.81;101776.53;5032129;28;20033;-80
2021/12/12 05:06:56;;;;;;;17.77;6.72;;;;;;;4.86;99.59;101788.94;5045240;28;20116;-80
2021/12/12 05:09:46;;;;;;;15.65;6.35;;;;;;;4.88;99.75;101784.44;5036913;28;20108;-80
2021/12/12 05:12:20;;;;;;;18.00;6.17;;;;;;;4.89;99.79;101794.16;5049701;28;20060;-80
2021/12/12 05:14:53;;;;;;;18.65;6.35;;;;;;;4.90;99.45;101793.25;5039887;28;20299;-80
2021/12/12 05:17:29;;;;;;;18.92;5.82;;;;;;;4.93;99.72;101800.25;5047730;28;20025;-80
2021/12/12 05:20:03;;;;;;;19.35;6.25;;;;;;;4.93;99.84;101800.25;5042613;28;20040;-80
2021/12/12 05:22:43;;;;;;;13.50;5.18;;;;;;;4.95;99.83;101793.09;5039845;28;20053;-80
2021/12/12 05:25:15;;;;;;;22.20;6.10;;;;;;;4.97;100.00;101798.38;5034751;28;20036;-79
2021/12/12 05:27:43;;;;;;;16.02;5.53;;;;;;;4.98;100.00;101800.06;5033298;28;20115;-79
2021/12/12 05:30:15;;;;;;;16.83;5.97;;;;;;;4.99;100.00;101808.06;5057898;28;20460;-80
2021/12/12 05:32:41;;;;;;;18.13;5.70;;;;;;;5.01;100.00;101802.66;5063797;28;20037;-80
2021/12/12 05:35:09;;;;;;;15.73;5.13;;;;;;;5.02;100.00;101802.63;5051549;28;20360;-80
2021/12/12 05:37:35;;;;;;;16.98;5.88;;;;;;;5.03;100.00;101804.34;5040844;28;20425;-80
2021/12/12 05:40:03;;;;;;;18.40;5.97;;;;;;;5.05;100.00;101797.16;5048716;28;20033;-80
2021/12/12 05:42:30;;;;;;;16.20;5.03;;;;;;;5.05;100.00;101797.16;5037954;28;20106;-80
2021/12/12 05:44:58;;;;;;;16.73;6.30;;;;;;;5.08;100.00;101793.50;5050661;28;20071;-80
2021/12/12 05:47:24;;;;;;;18.63;5.72;;;;;;;5.11;100.00;101798.75;5041621;28;20091;-80
2021/12/12 05:49:49;;;;;;;22.00;6.20;;;;;;;5.13;100.00;101798.69;5033720;28;20071;-80
2021/12/12 05:52:18;;;;;;;16.67;5.95;;;;;;;5.14;99.95;101803.09;5032252;28;20037;-80
2021/12/12 05:54:46;;;;;;;16.70;5.50;;;;;;;5.15;100.00;101803.03;5033769;28;20056;-80
2021/12/12 05:57:12;;;;;;;17.17;5.70;;;;;;;5.17;99.77;101809.19;5032487;28;20028;-79
2021/12/12 05:59:39;;;;;;;18.33;6.03;;;;;;;5.19;99.86;101812.66;5040205;28;20435;-79
2021/12/12 06:02:06;;;;;;;17.08;5.85;;;;;;;5.21;99.97;101826.81;5052085;28;20396;-79
2021/12/12 06:04:33;;;;;;;16.15;5.55;;;;;;;5.24;100.00;101820.50;5041562;28;20096;-79
2021/12/12 06:07:02;;;;;;;16.60;5.72;;;;;;;5.25;100.00;101828.44;5033510;28;20071;-79
2021/12/12 06:09:28;;;;;;;15.57;5.85;;;;;;;5.27;99.82;101832.84;5033622;28;20033;-79
2021/12/12 06:11:54;;;;;;;16.88;5.40;;;;;;;5.30;100.00;101832.72;5033714;28;20033;-79
2021/12/12 06:14:21;;;;;;;17.25;5.90;;;;;;;5.32;100.00;101833.56;5031667;28;20494;-79
2021/12/12 06:16:48;;;;;;;18.58;6.18;;;;;;;5.32;99.96;101830.91;5050132;28;20904;-80
2021/12/12 06:19:21;;;;;;;19.50;6.32;;;;;;;5.32;100.00;101837.09;5050668;28;20119;-80
2021/12/12 06:21:52;;;;;;;18.17;6.65;;;;;;;5.34;100.00;101843.22;5043214;28;20051;-79
2021/12/12 06:24:21;;;;;;;18.48;6.45;;;;;;;5.35;100.00;101830.78;5031658;28;20025;-80
2021/12/12 06:26:46;;;;;;;19.27;6.78;;;;;;;5.38;100.00;101834.19;5050210;28;20427;-80
2021/12/12 06:29:12;;;;;;;17.10;6.80;;;;;;;5.38;100.00;101828.88;5049682;28;20111;-80
2021/12/12 06:31:42;;;;;;;16.48;5.88;;;;;;;5.40;100.00;101819.03;5071195;28;20031;-79
2021/12/12 06:34:07;;;;;;;;;;;;;;;5.43;99.91;101832.25;5043985;28;20128;-79
2021/12/12 06:36:33;;;;;;;18.20;6.82;;;;;;;5.42;100.00;101829.66;5045656;28;20409;-80
2021/12/12 06:38:59;;;;;;;18.52;6.80;;;;;;;5.45;100.00;101829.53;5050250;28;20059;-80
2021/12/12 06:41:26;;;;;;;18.45;5.55;;;;;;;5.45;100.00;101834.88;5052980;28;20033;-80
2021/12/12 06:43:53;;;;;;;18.33;7.18;;;;;;;5.46;100.00;101831.28;5031547;28;20060;-80
2021/12/12 06:46:20;;;;;;;18.00;6.97;;;;;;;5.49;100.00;101832.94;5032767;28;20064;-80
2021/12/12 06:48:46;;;;;;;21.33;7.28;;;;;;;5.51;100.00;101837.31;5032850;28;20029;-80
2021/12/12 06:51:12;;;;;;;16.10;5.95;;;;;;;5.54;100.00;101833.66;5050606;28;20056;-80
2021/12/12 06:53:42;;;;;;;19.48;6.65;;;;;;;5.57;100.00;101841.53;5041895;28;20083;-80
2021/12/12 06:56:11;;;;;;;;;;;;;;;5.58;100.00;101836.16;5031155;28;20561;-80
2021/12/12 06:58:37;;;;;;;19.50;7.17;;;;;;;5.58;100.00;101841.50;5031511;28;19939;-80
2021/12/12 07:01:16;;;;;;;21.10;8.00;;;;;;;5.61;100.00;101851.19;5050995;28;20084;-80
2021/12/12 07:03:42;;;;;;;17.95;7.03;;;;;;;5.63;100.00;101849.31;5041915;28;20065;-80
2021/12/12 07:06:08;;;;;;;19.50;7.28;;;;;;;5.64;100.00;101850.19;5048944;28;20032;-80
2021/12/12 07:08:34;;;;;;;19.20;7.10;;;;;;;5.65;100.00;101847.47;5050720;28;20415;-80
2021/12/12 07:11:00;;;;;;;22.80;8.07;;;;;;;5.67;100.00;101845.63;5041158;28;20032;-80
2021/12/12 07:13:26;;;;;;;18.58;7.38;;;;;;;5.68;100.00;101851.81;5046540;28;20027;-80
2021/12/12 07:15:56;;;;;;;20.80;8.38;;;;;;;5.67;100.00;101844.75;5048480;28;20556;-80
2021/12/12 07:18:26;;;;;;;21.73;7.45;;;;;;;5.69;100.00;101849.09;5048270;28;20422;-80
2021/12/12 07:20:55;;;;;;;19.88;7.63;;;;;;;5.71;100.00;101849.03;5032496;28;20061;-80
2021/12/12 07:23:20;;;;;;;23.75;8.63;;;;;;;5.73;100.00;101840.06;5032643;28;20025;-80
2021/12/12 07:25:51;;;;;;;19.30;7.88;;;;;;;5.74;100.00;101846.25;5032887;28;20501;-80
2021/12/12 07:28:17;;;;;;;22.42;7.65;;;;;;;5.76;100.00;101847.06;5036433;28;20033;-80
2021/12/12 07:30:44;;;;;;;18.92;7.53;;;;;;;5.76;100.00;101845.28;5056516;28;20028;-80
2021/12/12 07:33:10;;;;;;;20.17;8.20;;;;;;;5.78;100.00;101845.22;5035299;28;20129;-80
2021/12/12 07:35:42;;;;;;;26.38;8.52;;;;;;;5.78;100.00;101842.53;5046375;28;20036;-80
2021/12/12 07:38:13;;;;;;;19.58;6.97;;;;;;;5.81;100.00;101849.56;5043111;28;20369;-80
2021/12/12 07:40:42;;;;;;;21.60;8.65;;;;;;;5.83;100.00;101845.03;5031797;28;20017;-80
2021/12/12 07:43:08;;;;;;;23.50;9.43;;;;;;;5.83;100.00;101848.59;5033228;28;20037;-80
2021/12/12 07:45:35;;;;;;;23.60;8.15;;;;;;;5.84;100.00;101850.34;5033516;28;20032;-80
2021/12/12 07:48:03;;;;;;;19.25;7.72;;;;;;;5.86;100.00;101852.94;5030484;28;20022;-80
2021/12/12 07:50:28;;;;;;;24.35;9.05;;;;;;;5.87;100.00;101860.00;5033011;28;20021;-80
2021/12/12 07:52:54;;;;;;;19.05;7.18;;;;;;;5.88;100.00;101859.09;5036839;28;20169;-80
2021/12/12 07:55:20;;;;;;;22.98;9.02;;;;;;;5.90;100.00;101862.56;5035021;28;20124;-80
2021/12/12 07:57:46;;;;;;;23.02;8.82;;;;;;;5.91;100.00;101856.28;5053511;28;20330;-80
2021/12/12 08:00:15;;;;;;;21.90;9.15;;;;;;;5.93;100.00;101862.47;5040338;28;20043;-80
2021/12/12 08:02:42;;;;;;;27.65;9.05;;;;;;;5.95;100.00;101864.13;5030215;28;20033;-80
2021/12/12 08:05:08;;;;;;;22.33;9.43;;;;;;;5.98;100.00;101873.00;5039448;28;20093;-80
2021/12/12 08:07:36;;;;;;;22.02;8.98;;;;;;;6.00;100.00;101868.47;5051424;28;20017;-80
2021/12/12 08:10:05;;;;;;;23.63;8.23;;;;;;;6.01;100.00;101862.19;5040171;28;20079;-80
2021/12/12 08:12:31;;;;;;;20.23;8.15;;;;;;;6.03;100.00;101873.69;5031131;28;20029;-80
2021/12/12 08:14:57;;;;;;;24.35;9.38;;;;;;;6.04;100.00;101875.44;5037108;28;20107;-80
2021/12/12 08:17:23;;;;;;;23.50;9.75;;;;;;;6.05;100.00;101869.16;5048860;28;20052;-80
2021/12/12 08:19:50;;;;;;;21.52;8.95;;;;;;;6.08;100.00;101882.41;5049662;28;20040;-79
2021/12/12 08:22:16;;;;;;;22.05;9.77;;;;;;;6.09;100.00;101887.66;5048658;28;20045;-80
2021/12/12 08:24:41;;;;;;;23.42;9.43;;;;;;;6.12;100.00;101882.22;5049318;28;20017;-81
2021/12/12 08:27:09;;;;;;;22.52;8.98;;;;;;;6.12;100.00;101894.69;5049806;28;20040;-80
2021/12/12 08:29:36;;;;;;;22.48;9.27;;;;;;;6.14;100.00;101900.84;5047947;28;20494;-80
2021/12/12 08:32:10;;;;;;;20.08;8.38;;;;;;;6.16;100.00;101901.63;5036535;28;20090;-80
2021/12/12 08:34:36;;;;;;;24.75;10.05;;;;;;;6.16;100.00;101912.31;5040171;28;20106;-80
2021/12/12 08:37:04;;;;;;;22.15;8.82;;;;;;;6.17;100.00;101911.41;5037902;28;20025;-80
2021/12/12 08:39:30;;;;;;;25.25;9.23;;;;;;;6.17;100.00;101903.38;5051458;28;20079;-80
2021/12/12 08:41:58;;;;;;;23.83;9.25;;;;;;;6.20;100.00;101918.41;5047414;28;20461;-80
2021/12/12 08:44:24;;;;;;;23.40;9.27;;;;;;;6.21;100.00;101909.47;5051628;28;20017;-80
2021/12/12 08:46:51;;;;;;;26.27;10.13;;;;;;;6.22;100.00;101914.78;5041307;28;20507;-80
2021/12/12 08:49:19;;;;;;;29.15;9.10;;;;;;;6.23;100.00;101904.97;5044058;28;20489;-80
2021/12/12 08:51:53;;;;;;;25.90;10.68;;;;;;;6.26;100.00;101908.38;5046674;28;20037;-81
2021/12/12 08:54:25;;;;;;;25.58;10.25;;;;;;;6.27;100.00;101923.47;5046307;28;20036;-80
2021/12/12 08:57:02;;;;;;;24.52;9.57;;;;;;;6.30;100.00;101919.81;5042279;28;20022;-80
2021/12/12 08:59:27;;;;;;;23.58;9.57;;;;;;;6.32;100.00;101925.09;5040344;28;20044;-80
2021/12/12 09:01:59;;;;;;;24.85;9.93;;;;;;;6.34;100.00;101926.78;5048288;28;20112;-80
2021/12/12 09:04:28;;;;;;;24.52;10.10;;;;;;;6.36;100.00;101924.91;5036449;28;20101;-80
2021/12/12 09:07:07;;;;;;;29.38;10.73;;;;;;;6.38;100.00;101935.53;5042070;28;20260;-80
2021/12/12 09:09:47;;;;;;;27.13;10.48;;;;;;;6.38;100.00;101930.19;5043595;28;20055;-80
2021/12/12 09:12:23;;;;;;;25.45;10.10;;;;;;;6.41;100.00;101927.41;5047593;28;20043;-80
2021/12/12 09:14:54;;;;;;;24.65;10.60;;;;;;;6.42;100.00;101923.81;5034735;28;20029;-80
2021/12/12 09:17:26;;;;;;;24.25;10.27;;;;;;;6.42;100.00;101929.16;5048750;28;20127;-80
2021/12/12 09:19:58;;;;;;;23.38;10.77;;;;;;;6.43;100.00;101942.44;5047985;28;20031;-80
2021/12/12 09:22:33;;;;;;;22.88;10.48;;;;;;;6.45;100.00;101940.56;5047593;28;20109;-80
2021/12/12 09:25:05;;;;;;;25.25;9.93;;;;;;;6.47;100.00;101945.84;5047430;28;20500;-80
2021/12/12 09:27:44;;;;;;;23.73;9.98;;;;;;;6.48;100.00;101953.81;5051839;28;20033;-80
2021/12/12 09:30:12;;;;;;;22.60;9.57;;;;;;;6.49;100.00;101957.38;5048850;28;20039;-80
2021/12/12 09:33:20;;;;;;;26.10;9.55;;;;;;;6.52;100.00;101959.06;5045305;28;20426;-80
2021/12/12 09:35:55;;;;;;;23.60;10.20;;;;;;;6.53;100.00;101953.66;5048067;28;20033;-79
2021/12/12 09:38:29;;;;;;;25.17;9.88;;;;;;;6.54;100.00;101958.03;5048830;28;20068;-80
2021/12/12 09:41:20;;;;;;;23.10;9.95;;;;;;;6.57;100.00;101959.72;5048123;28;20025;-80
2021/12/12 09:44:03;;;;;;;23.65;10.05;;;;;;;6.59;100.00;101956.06;5045857;28;20044;-80
2021/12/12 09:47:45;;;;;;;26.67;9.30;;;;;;;6.62;100.00;101966.63;5047854;28;20369;-80
2021/12/12 09:53:27;;;;;;;24.17;9.57;;;;;;;6.70;100.00;101970.81;5023742;28;20122;-80
2021/12/12 09:55:58;;;;;;;22.08;9.82;;;;;;;6.72;100.00;101974.28;5023798;28;20045;-80
2021/12/12 09:58:46;;;;;;;24.60;9.48;;;;;;;6.76;100.00;101973.25;5023361;28;20966;-80
2021/12/12 10:01:37;;;;;;;23.02;10.23;;;;;;;6.76;100.00;101968.75;5025622;28;20033;-80
2021/12/12 10:04:28;;;;;;;23.17;9.27;;;;;;;6.79;100.00;101976.69;5008369;28;20110;-80
2021/12/12 10:07:19;;;;;;;23.67;10.38;;;;;;;6.80;100.00;101970.38;5012591;28;20085;-80
2021/12/12 10:09:54;;;;;;;22.42;10.38;;;;;;;6.82;100.00;101973.00;5011168;28;20155;-80
2021/12/12 10:12:25;;;;;;;25.20;9.93;;;;;;;6.82;100.00;101967.66;5028582;28;20120;-80
2021/12/12 10:15:15;;;;;;;22.35;9.18;;;;;;;6.84;100.00;101979.16;5028618;28;20441;-80
2021/12/12 10:17:45;;;;;;;22.27;9.07;;;;;;;6.86;100.00;101976.44;5031269;28;21016;-80
2021/12/12 10:20:19;;;;;;;23.83;9.57;;;;;;;6.89;100.00;101969.16;5030179;28;20033;-80
2021/12/12 10:23:12;;;;;;;24.25;10.38;;;;;;;6.93;100.00;101972.59;5030428;28;20037;-80
2021/12/12 10:25:59;;;;;;;24.88;9.48;;;;;;;6.93;100.00;101977.94;5048620;28;20033;-80
2021/12/12 10:28:32;;;;;;;28.95;11.32;;;;;;;6.95;100.00;101982.25;5052116;28;20040;-80
2021/12/12 10:31:07;;;;;;;25.42;11.85;;;;;;;6.94;100.00;101975.19;5051316;28;20393;-80
2021/12/12 10:33:52;;;;;;;24.85;10.73;;;;;;;6.96;100.00;101977.81;5051214;28;20453;-80
2021/12/12 10:36:32;;;;;;;22.48;8.90;;;;;;;6.97;100.00;101980.41;5053222;28;20096;-80
2021/12/12 10:39:24;;;;;;;27.65;10.93;;;;;;;6.97;100.00;101977.75;5052377;28;20033;-81
2021/12/12 10:41:55;;;;;;;24.30;10.73;;;;;;;6.98;100.00;101976.81;5053733;28;20064;-80
2021/12/12 10:44:40;;;;;;;22.27;10.85;;;;;;;7.01;100.00;101975.81;5053556;28;20416;-80
2021/12/12 10:47:11;;;;;;;22.83;9.32;;;;;;;7.02;100.00;101971.34;5049276;28;20492;-80
2021/12/12 10:49:52;;;;;;;24.42;10.57;;;;;;;7.04;100.00;101973.00;5053233;28;20025;-80
2021/12/12 10:52:32;;;;;;;24.13;10.07;;;;;;;7.05;100.00;101972.09;5050873;28;20037;-81
2021/12/12 10:55:07;;;;;;;26.02;11.98;;;;;;;7.07;100.00;101975.59;5051809;28;20029;-80
2021/12/12 10:57:36;;;;;;;25.60;10.55;;;;;;;7.10;100.00;101977.22;5051088;28;20033;-80
2021/12/12 11:00:18;;;;;;;25.90;12.15;;;;;;;7.11;100.00;101976.31;5068928;28;20058;-80
2021/12/12 11:03:18;;;;;;;26.38;12.57;;;;;;;7.12;100.00;101968.22;5046142;28;20037;-80
2021/12/12 11:05:55;;;;;;;24.90;11.50;;;;;;;7.12;100.00;101973.56;5054592;28;20043;-80
2021/12/12 11:08:28;;;;;;;24.55;11.23;;;;;;;7.14;100.00;101984.22;5042042;28;20025;-80
2021/12/12 11:10:55;;;;;;;27.15;11.68;;;;;;;7.15;100.00;101967.25;5053807;28;20024;-80
2021/12/12 11:13:43;;;;;;;26.55;14.38;;;;;;;7.17;100.00;101976.94;5052820;28;20086;-80
2021/12/12 11:16:19;;;;;;;26.50;13.05;;;;;;;7.20;100.00;101969.72;5039845;28;20493;-80
2021/12/12 11:19:05;;;;;;;24.70;12.27;;;;;;;7.23;100.00;101970.44;5044942;28;20100;-80
2021/12/12 11:21:35;;;;;;;25.02;12.30;;;;;;;7.28;100.00;101967.63;5048210;28;20048;-80
2021/12/12 11:24:11;;;;;;;25.77;11.88;;;;;;;7.29;100.00;101964.88;5056183;28;20035;-80
2021/12/12 11:26:42;;;;;;;24.73;12.25;;;;;;;7.33;100.00;101970.94;5049726;28;20040;-80
2021/12/12 11:29:12;;;;;;;28.85;15.20;;;;;;;7.36;100.00;101970.81;5045626;28;20041;-80
2021/12/12 11:31:42;;;;;;;;;;;;;;;7.41;100.00;101967.94;5056838;28;20055;-81
2021/12/12 11:34:09;;;;;;;23.40;10.30;;;;;;;7.42;100.00;101964.34;5051090;28;19924;-80
2021/12/12 11:36:58;;;;;;;25.75;14.35;;;;;;;7.43;100.00;101974.13;5043528;28;20716;-80
2021/12/12 11:39:32;;;;;;;26.30;12.75;;;;;;;7.47;100.00;101965.03;5051082;28;20397;-80
2021/12/12 11:42:04;;;;;;;26.13;10.77;;;;;;;7.47;100.00;101970.38;5052120;28;20032;-80
2021/12/12 11:44:36;;;;;;;26.35;12.25;;;;;;;7.49;100.00;101972.03;5053619;28;20047;-80
2021/12/12 11:47:35;;;;;;;24.55;11.57;;;;;;;7.51;100.00;101980.00;5040988;28;20036;-80
2021/12/12 11:50:12;;;;;;;23.90;11.10;;;;;;;7.52;100.00;101976.38;5048800;28;20032;-81
2021/12/12 11:53:02;;;;;;;23.88;11.60;;;;;;;7.53;100.00;101976.31;5049507;28;20429;-81
2021/12/12 11:55:36;;;;;;;28.05;12.80;;;;;;;7.58;100.00;101981.47;5047458;28;20052;-81
2021/12/12 11:58:22;;;;;;;26.30;12.75;;;;;;;7.58;100.00;101981.47;5047146;28;20074;-81
2021/12/12 12:01:09;;;;;;;26.83;13.07;;;;;;;7.61;100.00;101975.13;5046627;28;20255;-80
2021/12/12 12:04:12;;;;;;;22.98;10.18;;;;;;;7.61;100.00;101976.00;5056319;28;20064;-80
2021/12/12 12:06:58;;;;;;;25.15;12.05;;;;;;;7.62;100.00;101977.75;5045333;28;20024;-80